createdAt,value
2023-03-17T00:01:13.182Z,100902.88
2023-03-17T00:02:08.010Z,100895.63
2023-03-17T00:03:06.002Z,100888.34
2023-03-17T00:03:49.056Z,100900.16
2023-03-17T00:04:30.124Z,100879.28
2023-03-17T00:05:28.962Z,100903.44
2023-03-17T00:06:09.307Z,100908.19
2023-03-17T00:06:49.964Z,100874.19
2023-03-17T00:07:31.944Z,100885.28
2023-03-17T00:08:26.942Z,100868.72
2023-03-17T00:09:07.987Z,100879.28
2023-03-17T00:09:42.068Z,100891.06
2023-03-17T00:10:32.296Z,100902.94
2023-03-17T00:11:07.530Z,100872.97
2023-03-17T00:11:55.996Z,100885.63
2023-03-17T00:12:30.129Z,100866.63
2023-03-17T00:13:18.955Z,100893.34
2023-03-17T00:13:53.070Z,100899.47
2023-03-17T00:14:34.019Z,100877.34
2023-03-17T00:15:17.736Z,100874.03
2023-03-17T00:16:06.977Z,100889.69
2023-03-17T00:16:52.569Z,100875.75
2023-03-17T00:17:33.954Z,100847.72
2023-03-17T00:18:22.572Z,100855.28
2023-03-17T00:19:04.940Z,100844.63
2023-03-17T00:19:54.016Z,100847.06
2023-03-17T00:20:47.953Z,100846.50
2023-03-17T00:21:46.965Z,100859.06
2023-03-17T00:22:40.945Z,100849.63
2023-03-17T00:23:36.943Z,100860.72
2023-03-17T00:24:30.961Z,100880.47
2023-03-17T00:25:40.951Z,100835.47
2023-03-17T00:26:17.054Z,100879.84
2023-03-17T00:27:04.959Z,100871.34
2023-03-17T00:27:39.192Z,100862.28
2023-03-17T00:28:29.933Z,100855.97
2023-03-17T00:29:05.501Z,100873.50
2023-03-17T00:29:53.924Z,100843.31
2023-03-17T00:30:29.393Z,100868.34
2023-03-17T00:31:23.086Z,100843.47
2023-03-17T00:32:05.077Z,100838.94
2023-03-17T00:32:45.944Z,100857.97
2023-03-17T00:33:27.089Z,100859.78
2023-03-17T00:34:08.102Z,100849.47
2023-03-17T00:34:48.026Z,100870.06
2023-03-17T00:35:35.980Z,100860.03
2023-03-17T00:36:36.009Z,100877.34
2023-03-17T00:37:29.911Z,100861.22
2023-03-17T00:38:30.907Z,100882.59
2023-03-17T00:39:27.921Z,100835.72
2023-03-17T00:40:35.919Z,100882.50
2023-03-17T00:41:29.942Z,100857.59
2023-03-17T00:42:10.952Z,100865.03
2023-03-17T00:42:52.219Z,100852.31
2023-03-17T00:43:32.913Z,100861.56
2023-03-17T00:44:14.501Z,100871.97
2023-03-17T00:44:55.895Z,100851.97
2023-03-17T00:45:36.049Z,100819.91
2023-03-17T00:46:29.952Z,100845.66
2023-03-17T00:47:10.038Z,100858.56
2023-03-17T00:47:51.931Z,100858.56
2023-03-17T00:48:34.006Z,100856.75
2023-03-17T00:49:29.922Z,100819.56
2023-03-17T00:50:11.491Z,100853.22
2023-03-17T00:50:55.912Z,100857.44
2023-03-17T00:51:36.070Z,100832.19
2023-03-17T00:52:16.971Z,100833.38
2023-03-17T00:53:06.935Z,100833.03
2023-03-17T00:54:00.940Z,100805.22
2023-03-17T00:54:54.944Z,100853.22
2023-03-17T00:55:48.920Z,100853.97
2023-03-17T00:56:42.909Z,100857.63
2023-03-17T00:57:36.932Z,100820.50
2023-03-17T00:58:34.924Z,100856.66
2023-03-17T00:59:09.382Z,100848.72
2023-03-17T00:59:55.959Z,100866.44
2023-03-17T01:00:36.939Z,100869.00
2023-03-17T01:01:24.992Z,100832.19
2023-03-17T01:01:59.734Z,100852.06
2023-03-17T01:02:47.897Z,100824.25
2023-03-17T01:03:21.993Z,100849.41
2023-03-17T01:04:02.937Z,100853.03
2023-03-17T01:04:49.984Z,100829.41
2023-03-17T01:05:32.923Z,100834.63
2023-03-17T01:06:18.081Z,100852.88
2023-03-17T01:06:59.895Z,100828.22
2023-03-17T01:07:39.986Z,100857.63
2023-03-17T01:08:20.904Z,100849.16
2023-03-17T01:09:01.990Z,100825.63
2023-03-17T01:09:41.962Z,100818.78
2023-03-17T01:10:31.799Z,100811.00
2023-03-17T01:11:12.873Z,100850.78
2023-03-17T01:11:53.524Z,100843.28
2023-03-17T01:12:34.895Z,100812.28
2023-03-17T01:13:28.876Z,100819.75
2023-03-17T01:14:25.875Z,100810.22
2023-03-17T01:15:06.894Z,100844.75
2023-03-17T01:15:54.035Z,100830.38
2023-03-17T01:16:35.973Z,100805.13
2023-03-17T01:17:23.992Z,100827.19
2023-03-17T01:18:05.871Z,100798.41
2023-03-17T01:18:47.041Z,100832.22
2023-03-17T01:19:27.929Z,100805.56
2023-03-17T01:20:16.962Z,100815.69
2023-03-17T01:21:11.893Z,100823.41
2023-03-17T01:22:05.873Z,100773.69
2023-03-17T01:22:59.871Z,100796.94
2023-03-17T01:23:54.858Z,100801.25
2023-03-17T01:24:49.895Z,100800.75
2023-03-17T01:25:37.923Z,100780.75
2023-03-17T01:26:12.965Z,100831.88
2023-03-17T01:26:59.888Z,100782.34
2023-03-17T01:27:34.011Z,100818.19
2023-03-17T01:28:24.868Z,100804.38
2023-03-17T01:28:59.024Z,100824.78
2023-03-17T01:29:45.860Z,100778.78
2023-03-17T01:30:33.989Z,100788.91
2023-03-17T01:31:13.932Z,100785.69
2023-03-17T01:31:54.071Z,100801.16
2023-03-17T01:32:34.947Z,100767.22
2023-03-17T01:33:16.964Z,100816.53
2023-03-17T01:33:57.858Z,100795.91
2023-03-17T01:34:39.748Z,100794.28
2023-03-17T01:35:20.880Z,100817.34
2023-03-17T01:36:00.989Z,100768.94
2023-03-17T01:36:41.960Z,100765.66
2023-03-17T01:37:22.191Z,100803.34
2023-03-17T01:38:03.862Z,100808.50
2023-03-17T01:38:47.969Z,100788.91
2023-03-17T01:39:28.859Z,100794.59
2023-03-17T01:40:09.604Z,100799.78
2023-03-17T01:40:56.869Z,100806.88
2023-03-17T01:41:48.867Z,100808.78
2023-03-17T01:42:42.829Z,100771.22
2023-03-17T01:43:42.841Z,100810.22
2023-03-17T01:44:37.882Z,100774.09
2023-03-17T01:46:23.893Z,100808.41
2023-03-17T01:47:10.924Z,100792.78
2023-03-17T01:47:45.499Z,100804.88
2023-03-17T01:48:33.845Z,100772.03
2023-03-17T01:49:40.010Z,100761.22
2023-03-17T01:50:27.973Z,100770.81
2023-03-17T01:51:01.996Z,100784.47
2023-03-17T01:52:12.893Z,100788.38
2023-03-17T01:52:48.026Z,100741.69
2023-03-17T01:53:34.874Z,100778.00
2023-03-17T01:54:14.132Z,100781.19
2023-03-17T01:55:08.868Z,100773.28
2023-03-17T01:55:43.001Z,100762.34
2023-03-17T01:56:30.853Z,100772.88
2023-03-17T01:57:22.882Z,100766.81
2023-03-17T01:58:16.877Z,100773.56
2023-03-17T01:59:13.831Z,100771.06
2023-03-17T02:00:14.860Z,100765.09
2023-03-17T02:01:08.902Z,100760.78
2023-03-17T02:02:06.816Z,100783.41
2023-03-17T02:02:51.894Z,100761.81
2023-03-17T02:03:33.191Z,100779.72
2023-03-17T02:04:14.928Z,100739.34
2023-03-17T02:04:58.108Z,100730.44
2023-03-17T02:05:39.832Z,100754.53
2023-03-17T02:06:19.953Z,100784.13
2023-03-17T02:07:00.823Z,100746.22
2023-03-17T02:07:40.966Z,100748.75
2023-03-17T02:08:22.838Z,100791.91
2023-03-17T02:09:03.953Z,100735.81
2023-03-17T02:09:44.823Z,100779.09
2023-03-17T02:10:28.871Z,100776.34
2023-03-17T02:11:11.840Z,100727.41
2023-03-17T02:11:52.908Z,100766.97
2023-03-17T02:12:35.871Z,100772.84
2023-03-17T02:13:17.930Z,100764.91
2023-03-17T02:13:58.833Z,100765.94
2023-03-17T02:14:38.902Z,100775.97
2023-03-17T02:15:19.818Z,100763.88
2023-03-17T02:16:00.094Z,100748.31
2023-03-17T02:16:40.865Z,100763.34
2023-03-17T02:17:21.149Z,100774.75
2023-03-17T02:18:01.829Z,100754.69
2023-03-17T02:18:41.960Z,100755.88
2023-03-17T02:19:21.879Z,100779.31
2023-03-17T02:20:03.815Z,100744.16
2023-03-17T02:20:44.801Z,100781.06
2023-03-17T02:21:45.992Z,100788.00
2023-03-17T02:22:26.820Z,100756.88
2023-03-17T02:23:07.901Z,100761.91
2023-03-17T02:23:48.826Z,100780.44
2023-03-17T02:25:06.884Z,100778.09
2023-03-17T02:26:01.797Z,100767.53
2023-03-17T02:26:57.802Z,100790.13
2023-03-17T02:27:57.801Z,100731.31
2023-03-17T02:28:52.792Z,100785.63
2023-03-17T02:29:52.833Z,100736.34
2023-03-17T02:30:34.846Z,100773.34
2023-03-17T02:31:15.515Z,100744.75
2023-03-17T02:32:03.824Z,100787.38
2023-03-17T02:32:38.642Z,100752.38
2023-03-17T02:33:25.795Z,100787.00
2023-03-17T02:33:59.624Z,100743.59
2023-03-17T02:34:47.804Z,100755.44
2023-03-17T02:35:21.809Z,100778.66
2023-03-17T02:36:03.928Z,100761.59
2023-03-17T02:36:38.104Z,100773.25
2023-03-17T02:37:13.559Z,100785.22
2023-03-17T02:37:54.807Z,100773.06
2023-03-17T02:38:29.926Z,100776.38
2023-03-17T02:39:04.421Z,100760.97
2023-03-17T02:39:44.794Z,100775.59
2023-03-17T02:40:19.916Z,100756.50
2023-03-17T02:40:53.656Z,100785.69
2023-03-17T02:41:34.810Z,100766.19
2023-03-17T02:42:08.889Z,100754.06
2023-03-17T02:42:43.637Z,100763.50
2023-03-17T02:43:24.791Z,100743.28
2023-03-17T02:43:58.992Z,100781.41
2023-03-17T02:44:32.932Z,100773.31
2023-03-17T02:45:15.815Z,100726.28
2023-03-17T02:45:50.026Z,100754.97
2023-03-17T02:46:23.632Z,100767.25
2023-03-17T02:47:05.824Z,100767.88
2023-03-17T02:47:39.937Z,100770.66
2023-03-17T02:48:13.999Z,100754.28
2023-03-17T02:48:54.789Z,100772.38
2023-03-17T02:49:28.939Z,100747.78
2023-03-17T02:50:02.937Z,100747.69
2023-03-17T02:50:43.813Z,100750.91
2023-03-17T02:51:19.932Z,100761.38
2023-03-17T02:51:53.873Z,100783.16
2023-03-17T02:52:34.834Z,100732.81
2023-03-17T02:53:09.248Z,100770.97
2023-03-17T02:53:43.680Z,100768.69
2023-03-17T02:54:24.785Z,100781.59
2023-03-17T02:54:58.904Z,100738.47
2023-03-17T02:55:32.604Z,100765.66
2023-03-17T02:56:13.780Z,100771.53
2023-03-17T02:56:47.944Z,100769.09
2023-03-17T02:57:22.038Z,100785.34
2023-03-17T02:58:02.808Z,100758.22
2023-03-17T02:58:36.926Z,100790.56
2023-03-17T02:59:11.759Z,100759.09
2023-03-17T02:59:52.775Z,100778.44
2023-03-17T03:00:28.524Z,100772.78
2023-03-17T03:01:03.494Z,100778.75
2023-03-17T03:01:45.818Z,100770.09
2023-03-17T03:02:45.663Z,100738.94
2023-03-17T03:03:32.808Z,100759.88
2023-03-17T03:04:26.781Z,100784.28
2023-03-17T03:05:21.772Z,100761.13
2023-03-17T03:06:15.805Z,100737.84
2023-03-17T03:07:09.762Z,100761.13
2023-03-17T03:08:03.798Z,100749.19
2023-03-17T03:08:50.818Z,100779.59
2023-03-17T03:09:25.751Z,100782.28
2023-03-17T03:10:13.786Z,100734.41
2023-03-17T03:10:47.914Z,100768.34
2023-03-17T03:11:35.809Z,100784.63
2023-03-17T03:12:11.284Z,100763.72
2023-03-17T03:12:58.784Z,100777.56
2023-03-17T03:13:38.990Z,100767.81
2023-03-17T03:14:19.833Z,100779.53
2023-03-17T03:15:00.720Z,100779.06
2023-03-17T03:15:41.849Z,100753.16
2023-03-17T03:16:22.867Z,100758.28
2023-03-17T03:17:02.756Z,100771.44
2023-03-17T03:17:42.854Z,100720.09
2023-03-17T03:18:22.791Z,100770.38
2023-03-17T03:19:02.912Z,100773.72
2023-03-17T03:19:42.779Z,100743.13
2023-03-17T03:20:24.126Z,100729.53
2023-03-17T03:21:04.748Z,100765.84
2023-03-17T03:21:46.252Z,100746.91
2023-03-17T03:22:26.821Z,100758.59
2023-03-17T03:23:06.928Z,100769.31
2023-03-17T03:23:46.775Z,100764.91
2023-03-17T03:24:27.932Z,100746.19
2023-03-17T03:25:07.833Z,100743.97
2023-03-17T03:25:48.919Z,100747.59
2023-03-17T03:26:29.773Z,100752.53
2023-03-17T03:27:10.922Z,100764.91
2023-03-17T03:27:50.733Z,100740.66
2023-03-17T03:28:31.874Z,100758.84
2023-03-17T03:29:11.749Z,100767.91
2023-03-17T03:29:51.897Z,100768.84
2023-03-17T03:30:33.782Z,100734.88
2023-03-17T03:31:14.857Z,100751.75
2023-03-17T03:31:54.735Z,100774.50
2023-03-17T03:32:35.924Z,100735.31
2023-03-17T03:33:16.781Z,100735.81
2023-03-17T03:33:56.923Z,100719.59
2023-03-17T03:34:36.722Z,100744.84
2023-03-17T03:35:16.940Z,100762.69
2023-03-17T03:35:56.802Z,100734.94
2023-03-17T03:36:37.849Z,100749.63
2023-03-17T03:37:17.742Z,100755.47
2023-03-17T03:37:57.833Z,100722.59
2023-03-17T03:38:38.725Z,100713.34
2023-03-17T03:39:19.864Z,100757.66
2023-03-17T03:39:59.735Z,100709.53
2023-03-17T03:40:41.239Z,100730.28
2023-03-17T03:41:21.773Z,100711.03
2023-03-17T03:42:01.886Z,100742.44
2023-03-17T03:42:41.740Z,100723.38
2023-03-17T03:43:23.889Z,100721.88
2023-03-17T03:44:04.733Z,100724.94
2023-03-17T03:44:45.832Z,100754.28
2023-03-17T03:45:33.741Z,100758.78
2023-03-17T03:46:07.883Z,100755.22
2023-03-17T03:46:47.783Z,100731.72
2023-03-17T03:47:27.801Z,100712.38
2023-03-17T03:48:08.742Z,100736.91
2023-03-17T03:48:49.858Z,100748.16
2023-03-17T03:49:30.745Z,100731.56
2023-03-17T03:50:11.992Z,100717.63
2023-03-17T03:50:52.727Z,100727.28
2023-03-17T03:51:33.866Z,100735.72
2023-03-17T03:52:14.733Z,100759.22
2023-03-17T03:52:56.838Z,100732.16
2023-03-17T03:53:37.728Z,100734.91
2023-03-17T03:54:17.860Z,100731.22
2023-03-17T03:54:58.717Z,100761.72
2023-03-17T03:55:38.873Z,100758.78
2023-03-17T03:56:19.755Z,100763.09
2023-03-17T03:57:00.886Z,100757.97
2023-03-17T03:57:41.750Z,100742.09
2023-03-17T03:58:21.831Z,100762.91
2023-03-17T03:59:02.699Z,100741.28
2023-03-17T03:59:42.808Z,100747.50
2023-03-17T04:00:24.721Z,100718.81
2023-03-17T04:01:06.154Z,100734.00
2023-03-17T04:01:47.711Z,100731.47
2023-03-17T04:02:27.864Z,100740.19
2023-03-17T04:03:08.791Z,100737.38
2023-03-17T04:03:48.881Z,100751.53
2023-03-17T04:04:29.732Z,100731.63
2023-03-17T04:05:13.743Z,100708.91
2023-03-17T04:05:54.702Z,100744.47
2023-03-17T04:06:34.808Z,100723.38
2023-03-17T04:07:15.695Z,100725.25
2023-03-17T04:07:56.036Z,100720.00
2023-03-17T04:08:38.730Z,100751.13
2023-03-17T04:09:19.837Z,100761.59
2023-03-17T04:10:00.721Z,100700.56
2023-03-17T04:10:41.805Z,100753.56
2023-03-17T04:11:22.716Z,100761.28
2023-03-17T04:12:02.881Z,100756.03
2023-03-17T04:12:43.674Z,100753.34
2023-03-17T04:13:23.801Z,100710.94
2023-03-17T04:14:04.740Z,100724.16
2023-03-17T04:14:44.846Z,100759.69
2023-03-17T04:15:26.752Z,100753.81
2023-03-17T04:16:06.812Z,100742.72
2023-03-17T04:16:47.700Z,100754.53
2023-03-17T04:17:28.797Z,100749.50
2023-03-17T04:18:09.687Z,100751.34
2023-03-17T04:18:49.896Z,100708.44
2023-03-17T04:19:30.711Z,100766.53
2023-03-17T04:20:11.930Z,100761.25
2023-03-17T04:20:52.706Z,100746.81
2023-03-17T04:21:32.840Z,100766.53
2023-03-17T04:22:15.699Z,100712.69
2023-03-17T04:22:56.164Z,100755.28
2023-03-17T04:23:37.711Z,100738.06
2023-03-17T04:24:17.793Z,100721.56
2023-03-17T04:24:58.765Z,100752.69
2023-03-17T04:25:39.034Z,100709.50
2023-03-17T04:26:19.681Z,100749.06
2023-03-17T04:27:01.030Z,100716.22
2023-03-17T04:27:41.707Z,100706.75
2023-03-17T04:28:22.515Z,100741.38
2023-03-17T04:29:03.694Z,100709.44
2023-03-17T04:29:43.956Z,100753.66
2023-03-17T04:30:24.746Z,100749.31
2023-03-17T04:31:04.810Z,100703.38
2023-03-17T04:31:46.752Z,100754.50
2023-03-17T04:32:27.346Z,100713.84
2023-03-17T04:33:08.786Z,100740.66
2023-03-17T04:33:48.833Z,100740.50
2023-03-17T04:34:29.674Z,100732.31
2023-03-17T04:35:10.968Z,100756.47
2023-03-17T04:35:51.752Z,100721.13
2023-03-17T04:36:31.785Z,100725.53
2023-03-17T04:37:12.686Z,100724.19
2023-03-17T04:37:53.773Z,100772.28
2023-03-17T04:38:34.677Z,100743.31
2023-03-17T04:39:14.796Z,100729.41
2023-03-17T04:39:55.670Z,100748.34
2023-03-17T04:40:35.898Z,100707.66
2023-03-17T04:41:16.705Z,100724.94
2023-03-17T04:41:56.801Z,100747.19
2023-03-17T04:42:38.685Z,100736.03
2023-03-17T04:43:18.792Z,100732.63
2023-03-17T04:43:59.685Z,100748.22
2023-03-17T04:44:39.808Z,100760.50
2023-03-17T04:45:21.694Z,100754.50
2023-03-17T04:46:01.853Z,100710.47
2023-03-17T04:46:42.709Z,100758.91
2023-03-17T04:47:22.796Z,100760.81
2023-03-17T04:48:03.704Z,100750.75
2023-03-17T04:48:43.795Z,100768.03
2023-03-17T04:49:24.659Z,100758.59
2023-03-17T04:50:04.847Z,100730.59
2023-03-17T04:50:45.653Z,100761.72
2023-03-17T04:51:25.797Z,100735.16
2023-03-17T04:52:05.656Z,100756.69
2023-03-17T04:52:45.754Z,100716.78
2023-03-17T04:53:26.695Z,100751.34
2023-03-17T04:54:08.298Z,100735.63
2023-03-17T04:54:49.700Z,100761.91
2023-03-17T04:55:29.810Z,100752.38
2023-03-17T04:56:10.705Z,100752.38
2023-03-17T04:56:50.788Z,100770.69
2023-03-17T04:57:31.701Z,100740.06
2023-03-17T04:58:15.461Z,100764.50
2023-03-17T04:59:01.677Z,100737.53
2023-03-17T04:59:41.794Z,100711.81
2023-03-17T05:00:22.652Z,100765.34
2023-03-17T05:01:03.671Z,100716.78
2023-03-17T05:01:44.661Z,100714.50
2023-03-17T05:02:26.302Z,100756.69
2023-03-17T05:03:23.890Z,100749.94
2023-03-17T05:04:06.803Z,100732.63
2023-03-17T05:04:47.660Z,100715.41
2023-03-17T05:05:27.821Z,100726.59
2023-03-17T05:06:09.666Z,100757.44
2023-03-17T05:06:49.808Z,100767.81
2023-03-17T05:07:32.672Z,100717.63
2023-03-17T05:08:20.681Z,100774.00
2023-03-17T05:09:14.647Z,100737.38
2023-03-17T05:10:08.660Z,100736.50
2023-03-17T05:11:02.661Z,100741.78
2023-03-17T05:11:56.673Z,100736.81
2023-03-17T05:12:51.653Z,100764.13
2023-03-17T05:13:38.669Z,100756.22
2023-03-17T05:14:12.802Z,100741.75
2023-03-17T05:14:59.657Z,100765.13
2023-03-17T05:15:33.773Z,100753.00
2023-03-17T05:16:20.666Z,100760.38
2023-03-17T05:16:55.853Z,100749.75
2023-03-17T05:17:42.621Z,100742.72
2023-03-17T05:18:16.729Z,100729.84
2023-03-17T05:19:03.675Z,100734.03
2023-03-17T05:19:37.748Z,100760.59
2023-03-17T05:20:24.650Z,100741.91
2023-03-17T05:20:58.754Z,100723.50
2023-03-17T05:21:46.652Z,100705.13
2023-03-17T05:22:20.772Z,100745.22
2023-03-17T05:23:07.636Z,100749.78
2023-03-17T05:23:41.873Z,100740.91
2023-03-17T05:24:28.630Z,100758.13
2023-03-17T05:25:03.844Z,100742.06
2023-03-17T05:25:51.623Z,100735.16
2023-03-17T05:26:25.993Z,100721.63
2023-03-17T05:27:12.622Z,100699.78
2023-03-17T05:27:46.749Z,100748.53
2023-03-17T05:28:34.635Z,100737.75
2023-03-17T05:29:09.020Z,100746.31
2023-03-17T05:29:49.632Z,100720.78
2023-03-17T05:30:30.499Z,100737.06
2023-03-17T05:31:11.678Z,100711.84
2023-03-17T05:31:52.753Z,100730.78
2023-03-17T05:32:33.648Z,100723.75
2023-03-17T05:33:14.546Z,100726.38
2023-03-17T05:33:55.624Z,100712.53
2023-03-17T05:34:35.756Z,100745.09
2023-03-17T05:35:16.704Z,100764.41
2023-03-17T05:35:58.746Z,100746.97
2023-03-17T05:36:39.610Z,100735.63
2023-03-17T05:37:20.949Z,100743.19
2023-03-17T05:38:01.589Z,100756.88
2023-03-17T05:38:42.255Z,100754.97
2023-03-17T05:39:23.611Z,100719.38
2023-03-17T05:40:04.743Z,100706.09
2023-03-17T05:40:45.667Z,100744.91
2023-03-17T05:41:26.535Z,100749.63
2023-03-17T05:42:07.632Z,100752.78
2023-03-17T05:42:47.845Z,100758.16
2023-03-17T05:43:28.592Z,100745.88
2023-03-17T05:44:08.822Z,100720.09
2023-03-17T05:44:49.634Z,100730.94
2023-03-17T05:45:30.431Z,100758.47
2023-03-17T05:46:12.707Z,100739.25
2023-03-17T05:46:52.752Z,100748.88
2023-03-17T05:47:33.691Z,100733.47
2023-03-17T05:48:14.713Z,100742.47
2023-03-17T05:48:55.704Z,100749.50
2023-03-17T05:49:35.804Z,100713.03
2023-03-17T05:50:18.582Z,100742.25
2023-03-17T05:50:58.722Z,100746.00
2023-03-17T05:51:39.664Z,100752.94
2023-03-17T05:52:19.949Z,100751.94
2023-03-17T05:53:00.574Z,100739.88
2023-03-17T05:53:41.650Z,100753.75
2023-03-17T05:54:22.602Z,100727.69
2023-03-17T05:55:02.949Z,100766.84
2023-03-17T05:55:43.588Z,100751.22
2023-03-17T05:56:25.130Z,100727.78
2023-03-17T05:57:06.593Z,100742.41
2023-03-17T05:57:47.720Z,100753.38
2023-03-17T05:58:28.593Z,100746.63
2023-03-17T05:59:09.439Z,100749.16
2023-03-17T05:59:50.620Z,100753.75
2023-03-17T06:00:30.877Z,100728.47
2023-03-17T06:01:11.566Z,100738.94
2023-03-17T06:01:52.011Z,100753.75
2023-03-17T06:02:32.648Z,100747.50
2023-03-17T06:03:12.730Z,100715.44
2023-03-17T06:03:53.598Z,100734.41
2023-03-17T06:04:33.711Z,100720.16
2023-03-17T06:05:15.621Z,100734.72
2023-03-17T06:05:55.697Z,100711.88
2023-03-17T06:06:35.647Z,100741.47
2023-03-17T06:07:18.669Z,100726.63
2023-03-17T06:07:59.649Z,100730.78
2023-03-17T06:08:39.707Z,100715.25
2023-03-17T06:09:20.648Z,100736.75
2023-03-17T06:10:02.297Z,100731.47
2023-03-17T06:10:45.572Z,100733.13
2023-03-17T06:11:26.713Z,100742.16
2023-03-17T06:12:07.664Z,100736.75
2023-03-17T06:12:48.727Z,100718.69
2023-03-17T06:13:32.602Z,100701.16
2023-03-17T06:14:14.769Z,100740.06
2023-03-17T06:14:56.581Z,100731.75
2023-03-17T06:15:39.866Z,100727.53
2023-03-17T06:16:20.576Z,100719.03
2023-03-17T06:17:01.718Z,100718.88
2023-03-17T06:17:43.586Z,100724.00
2023-03-17T06:18:25.958Z,100694.09
2023-03-17T06:19:06.690Z,100724.72
2023-03-17T06:19:50.687Z,100722.50
2023-03-17T06:20:32.640Z,100724.78
2023-03-17T06:21:12.798Z,100690.91
2023-03-17T06:21:53.560Z,100700.06
2023-03-17T06:22:34.676Z,100713.59
2023-03-17T06:23:15.559Z,100722.81
2023-03-17T06:23:55.732Z,100734.75
2023-03-17T06:24:36.589Z,100696.81
2023-03-17T06:25:18.044Z,100725.50
2023-03-17T06:25:58.619Z,100744.34
2023-03-17T06:26:38.680Z,100729.66
2023-03-17T06:27:20.561Z,100748.91
2023-03-17T06:28:03.548Z,100718.41
2023-03-17T06:28:44.544Z,100741.06
2023-03-17T06:29:25.733Z,100721.44
2023-03-17T06:30:06.565Z,100749.19
2023-03-17T06:30:40.943Z,100743.13
2023-03-17T06:31:28.633Z,100747.81
2023-03-17T06:32:19.189Z,100734.66
2023-03-17T06:33:08.740Z,100726.09
2023-03-17T06:33:42.506Z,100741.06
2023-03-17T06:34:31.570Z,100751.09
2023-03-17T06:35:13.605Z,100728.06
2023-03-17T06:35:53.710Z,100741.88
2023-03-17T06:36:35.911Z,100743.50
2023-03-17T06:37:17.778Z,100724.16
2023-03-17T06:37:58.567Z,100743.34
2023-03-17T06:38:40.058Z,100718.81
2023-03-17T06:39:22.612Z,100736.94
2023-03-17T06:40:04.396Z,100749.22
2023-03-17T06:40:44.599Z,100740.41
2023-03-17T06:41:25.651Z,100741.09
2023-03-17T06:42:06.374Z,100708.16
2023-03-17T06:42:46.747Z,100725.72
2023-03-17T06:43:28.548Z,100736.94
2023-03-17T06:44:08.700Z,100739.63
2023-03-17T06:44:48.602Z,100717.25
2023-03-17T06:45:30.025Z,100750.06
2023-03-17T06:46:11.585Z,100710.94
2023-03-17T06:46:52.669Z,100746.44
2023-03-17T06:47:32.549Z,100731.31
2023-03-17T06:48:13.667Z,100739.88
2023-03-17T06:48:54.516Z,100717.50
2023-03-17T06:49:36.799Z,100744.66
2023-03-17T06:50:19.564Z,100716.31
2023-03-17T06:50:59.640Z,100729.25
2023-03-17T06:51:40.560Z,100739.00
2023-03-17T06:52:20.835Z,100713.53
2023-03-17T06:53:01.540Z,100732.44
2023-03-17T06:53:42.649Z,100725.00
2023-03-17T06:54:24.544Z,100718.28
2023-03-17T06:55:04.861Z,100737.81
2023-03-17T06:55:45.524Z,100741.44
2023-03-17T06:56:30.083Z,100738.00
2023-03-17T06:57:10.546Z,100710.16
2023-03-17T06:57:52.409Z,100732.72
2023-03-17T06:58:32.526Z,100734.53
2023-03-17T06:59:13.645Z,100735.91
2023-03-17T06:59:53.537Z,100721.94
2023-03-17T07:00:33.631Z,100730.38
2023-03-17T07:01:14.549Z,100724.81
2023-03-17T07:01:55.656Z,100711.63
2023-03-17T07:02:35.529Z,100716.22
2023-03-17T07:03:15.868Z,100714.91
2023-03-17T07:03:56.542Z,100743.22
2023-03-17T07:04:37.982Z,100731.72
2023-03-17T07:05:20.549Z,100708.22
2023-03-17T07:06:01.667Z,100717.81
2023-03-17T07:06:42.517Z,100711.00
2023-03-17T07:07:24.849Z,100729.56
2023-03-17T07:08:06.525Z,100717.09
2023-03-17T07:08:47.614Z,100721.16
2023-03-17T07:09:28.691Z,100732.78
2023-03-17T07:10:10.726Z,100739.19
2023-03-17T07:10:52.547Z,100717.34
2023-03-17T07:11:32.784Z,100711.78
2023-03-17T07:12:13.525Z,100716.97
2023-03-17T07:12:53.857Z,100746.06
2023-03-17T07:13:34.530Z,100741.81
2023-03-17T07:14:15.663Z,100735.59
2023-03-17T07:14:56.571Z,100727.16
2023-03-17T07:15:37.312Z,100736.69
2023-03-17T07:16:20.541Z,100738.44
2023-03-17T07:17:00.636Z,100736.72
2023-03-17T07:17:40.523Z,100739.03
2023-03-17T07:18:21.684Z,100723.91
2023-03-17T07:19:02.565Z,100725.84
2023-03-17T07:19:42.673Z,100724.00
2023-03-17T07:20:23.490Z,100705.50
2023-03-17T07:21:07.993Z,100715.13
2023-03-17T07:21:48.536Z,100694.31
2023-03-17T07:22:29.708Z,100725.69
2023-03-17T07:23:09.537Z,100704.28
2023-03-17T07:23:49.694Z,100737.38
2023-03-17T07:24:30.529Z,100713.44
2023-03-17T07:25:11.601Z,100706.25
2023-03-17T07:25:53.488Z,100732.66
2023-03-17T07:26:34.638Z,100727.94
2023-03-17T07:27:15.497Z,100721.22
2023-03-17T07:27:56.691Z,100717.59
2023-03-17T07:28:37.487Z,100722.09
2023-03-17T07:29:17.667Z,100720.09
2023-03-17T07:29:58.548Z,100729.97
2023-03-17T07:30:40.809Z,100699.41
2023-03-17T07:31:21.536Z,100727.72
2023-03-17T07:32:02.077Z,100688.66
2023-03-17T07:32:43.528Z,100722.72
2023-03-17T07:33:25.741Z,100724.34
2023-03-17T07:34:05.508Z,100690.00
2023-03-17T07:34:46.592Z,100714.88
2023-03-17T07:35:26.555Z,100692.25
2023-03-17T07:36:07.252Z,100699.81
2023-03-17T07:36:48.553Z,100724.00
2023-03-17T07:37:29.727Z,100719.00
2023-03-17T07:38:09.530Z,100695.59
2023-03-17T07:38:50.601Z,100702.81
2023-03-17T07:39:30.476Z,100719.97
2023-03-17T07:40:12.619Z,100713.91
2023-03-17T07:40:55.561Z,100717.00
2023-03-17T07:41:36.766Z,100709.22
2023-03-17T07:42:21.486Z,100691.09
2023-03-17T07:43:02.801Z,100705.88
2023-03-17T07:43:44.481Z,100702.50
2023-03-17T07:44:25.925Z,100690.81
2023-03-17T07:45:06.459Z,100688.91
2023-03-17T07:45:47.047Z,100698.13
2023-03-17T07:46:27.515Z,100705.03
2023-03-17T07:47:08.553Z,100706.16
2023-03-17T07:47:55.473Z,100695.31
2023-03-17T07:48:30.818Z,100713.19
2023-03-17T07:49:20.926Z,100702.34
2023-03-17T07:50:01.789Z,100721.44
2023-03-17T07:50:49.480Z,100723.63
2023-03-17T07:51:34.492Z,100709.72
2023-03-17T07:52:28.451Z,100724.13
2023-03-17T07:53:22.483Z,100727.94
2023-03-17T07:54:16.519Z,100718.47
2023-03-17T07:55:10.437Z,100700.91
2023-03-17T07:56:04.476Z,100706.75
2023-03-17T07:56:51.517Z,100702.13
2023-03-17T07:57:25.692Z,100676.81
2023-03-17T07:58:15.765Z,100712.47
2023-03-17T07:58:50.773Z,100698.69
2023-03-17T07:59:38.442Z,100699.53
2023-03-17T08:00:15.563Z,100695.78
2023-03-17T08:01:04.456Z,100695.59
2023-03-17T08:01:38.771Z,100701.53
2023-03-17T08:02:23.553Z,100685.91
2023-03-17T08:03:10.331Z,100689.44
2023-03-17T08:03:51.515Z,100698.06
2023-03-17T08:04:31.607Z,100681.09
2023-03-17T08:05:14.526Z,100697.78
2023-03-17T08:06:00.650Z,100696.91
2023-03-17T08:06:42.452Z,100700.94
2023-03-17T08:07:22.573Z,100704.97
2023-03-17T08:08:03.480Z,100663.53